Flight Track Log - Related Links

Times and Time Zones

All times are in EDT time to prevent confusion due to time zone crossing. See the SWA2236 flight status page for this flight to view local times or setup timezone preferences in your user account.

Time Position Orientation Groundspeed Altitude Reporting Facility
EDT Latitude Longitude Course Direction KTS MPH feet Rate Location/Type
Mon 12:18:42 PM 37.7500 -122.2833 107° East 196 226 1,900  Level Northern Cal TRACON
Mon 12:19:42 PM 37.7500 -122.3500 270° West 208 239 4,800 2,750 Climbing Northern Cal TRACON
Mon 12:20:42 PM 37.7000 -122.3833 208° Southwest 254 292 7,400 3,000 Climbing Northern Cal TRACON
Mon 12:21:42 PM 37.6333 -122.4167 202° Southwest 284 327 10,800 2,872 Climbing Northern Cal TRACON
Mon 12:22:16 PM 37.5764 -122.4333 193° South 301 346 11,900 2,716 Climbing Oakland Center
Mon 12:23:17 PM 37.5042 -122.3758 148° Southeast 347 399 15,100 2,927 Climbing Oakland Center
Mon 12:24:00 PM 37.2362 -122.2282 107° East  Level FlightAware Approximate
Mon 12:24:19 PM 37.4761 -122.2539 106° East 363 418 17,900  Level Oakland Center
Mon 12:25:20 PM 37.4472 -122.1269 106° East 377 434 20,600 2,361 Climbing Oakland Center
Mon 12:26:21 PM 37.4164 -121.9958 106° East 389 448 22,700 2,146 Climbing Oakland Center
Mon 12:27:23 PM 37.3842 -121.8561 106° East 413 475 25,000 2,195 Climbing Oakland Center
Mon 12:28:24 PM 37.3483 -121.7006 106° East 430 495 27,200 1,951 Climbing Oakland Center
Mon 12:29:26 PM 37.3133 -121.5547 107° East 437 503 29,000 2,000 Climbing Oakland Center
Mon 12:30:27 PM 37.2792 -121.4053 106° East 444 511 31,300 1,951 Climbing Oakland Center
Mon 12:31:29 PM 37.2436 -121.2594 107° East 439 505 33,000 829 Climbing Oakland Center
Mon 12:32:30 PM 37.2011 -121.0844 107° East 438 504 33,000  Level Oakland Center
Mon 12:33:32 PM 37.1656 -120.9397 107° East 437 503 33,000  Level Oakland Center
Mon 12:34:33 PM 37.1308 -120.7958 107° East 434 499 33,000  Level Oakland Center
Mon 12:35:35 PM 37.0958 -120.6517 107° East 434 499 33,000  Level Oakland Center
Mon 12:36:36 PM 37.0597 -120.5092 108° East 432 497 33,000  Level Oakland Center
Mon 12:37:38 PM 37.0425 -120.3603 98° East 434 499 33,000  Level Oakland Center
Mon 12:38:39 PM 37.0353 -120.2075 93° East 442 509 33,000  Level Oakland Center
Mon 12:39:41 PM 37.0256 -120.0472 94° East 438 504 33,000  Level Oakland Center
Mon 12:40:42 PM 37.0178 -119.8944 94° East 439 505 33,000  Level Oakland Center
Mon 12:41:44 PM 37.0092 -119.7456 94° East 432 497 33,000  Level Oakland Center
Mon 12:42:45 PM 37.0003 -119.5919 94° East 439 505 33,000  Level Oakland Center
Mon 12:43:46 PM 36.9908 -119.4417 94° East 435 501 33,000  Level Oakland Center
Mon 12:44:48 PM 36.9808 -119.2586 94° East 439 505 33,000  Level Oakland Center
Mon 12:45:49 PM 36.9708 -119.1069 95° East 438 504 33,000  Level Oakland Center
Mon 12:46:51 PM 36.9614 -118.9533 94° East 443 510 33,000  Level Oakland Center
Mon 12:47:52 PM 36.9517 -118.7986 94° East 447 514 33,000  Level Oakland Center
Mon 12:48:53 PM 36.9414 -118.6450 95° East 445 512 33,000  Level Oakland Center
Mon 12:49:55 PM 36.9303 -118.4819 95° East 444 511 33,000 -146 Level Oakland Center
Mon 12:50:56 PM 36.9197 -118.3292 95° East 443 510 32,700 -634 Descending Oakland Center
Mon 12:51:58 PM 36.9089 -118.1775 95° East 441 507 31,700 -829 Descending Oakland Center
Mon 12:52:59 PM 36.8994 -118.0289 94° East 434 499 31,000 -344 Descending Oakland Center
Mon 12:54:00 PM 36.8892 -117.8800 95° East 432 497 31,000  Level Oakland Center
Mon 12:55:02 PM 36.8769 -117.7297 96° East 436 502 31,000  Level Oakland Center
Mon 12:56:03 PM 36.8256 -117.5658 111° Southeast 425 489 31,000  Level Oakland Center
Mon 12:57:05 PM 36.7769 -117.4347 115° Southeast 420 483 31,000  Level Oakland Center
Mon 12:58:06 PM 36.7294 -117.3022 114° Southeast 421 484 31,000  Level Oakland Center
Mon 12:59:07 PM 36.6794 -117.1681 115° Southeast 425 489 31,000  Level Oakland Center
Mon 01:00:09 PM 36.6292 -117.0339 115° Southeast 427 491 31,000 -98 Level Oakland Center
Mon 01:01:10 PM 36.5803 -116.9014 115° Southeast 424 488 30,800 -780 Descending Oakland Center
Mon 01:02:12 PM 36.5308 -116.7719 115° Southeast 420 483 29,400 -1,659 Descending Oakland Center
Mon 01:03:13 PM 36.4842 -116.6461 115° Southeast 407 468 27,400 -1,855 Descending Oakland Center
Mon 01:04:44 PM 36.4175 -116.4644 114° Southeast 392 451 24,700 -1,922 Descending Los Angeles Center
Mon 01:05:46 PM 36.3650 -116.3258 115° Southeast 376 433 22,500 -1,887 Descending Los Angeles Center
Mon 01:06:48 PM 36.3217 -116.2142 116° Southeast 365 420 20,800 -1,742 Descending Los Angeles Center
Mon 01:07:50 PM 36.2775 -116.0975 115° Southeast 347 399 18,900 -1,742 Descending Los Angeles Center
Mon 01:08:52 PM 36.2358 -115.9933 116° Southeast 338 389 17,200 -1,392 Descending Los Angeles Center
Mon 01:09:55 PM 36.1961 -115.8850 114° Southeast 327 376 16,000 -1,200 Descending Los Angeles Center
Mon 01:10:57 PM 36.1633 -115.7850 112° Southeast 314 361 14,700 -1,403 Descending Los Angeles Center
Mon 01:11:59 PM 36.1303 -115.6806 111° Southeast 302 348 13,100 -823 Descending Los Angeles Center
Mon 01:13:01 PM 36.0997 -115.5889 112° Southeast 291 335 13,000 -48 Descending Los Angeles Center
Mon 01:14:03 PM 36.0728 -115.5061 112° Southeast 255 293 13,000 -339 Level Los Angeles Center
Mon 01:15:05 PM 36.0483 -115.4278 111° Southeast 247 284 12,300 -774 Descending Los Angeles Center
Mon 01:16:07 PM 36.0272 -115.3475 108° East 247 284 11,400 -950 Descending Los Angeles Center
Mon 01:17:05 PM 36.0225 -115.2603 94° East 249 287 10,400 -1,160 Descending Los Angeles Center
Mon 01:18:06 PM 36.0158 -115.1694 95° East 250 288 9,100 -1,180 Descending Los Angeles Center
Mon 01:19:07 PM 36.0111 -115.0886 94° East 237 273 8,000 -984 Descending Los Angeles Center
Mon 01:20:14 PM 36.0061 -115.0053 94° East 203 234 7,000 -984 Descending Los Angeles Center
Mon 01:21:15 PM 36.0131 -114.9389 83° East 213 245 5,900 -1,000 Descending Los Angeles Center
Mon 01:22:20 PM 36.0592 -114.9503 349° North 210 242 4,900 -992 Descending Los Angeles Center
Mon 01:23:22 PM 36.0744 -115.0064 289° West 192 221 3,800 -1,016 Descending Los Angeles Center
Mon 01:24:24 PM 36.0725 -115.0817 268° West 164 189 2,800 -774 Descending Los Angeles Center
Mon 01:25:26 PM 36.0736 -115.1200 272° West 170 196 2,200 -581 Descending Los Angeles Center
Mon 01:27:00 PM 36.0667 -115.1500 270° West  Level FlightAware Approximate

Login

Don't have an account? Register now (free) for customized features, flight alerts, and more!